sensor_id;sensor_type;location;lat;lon;timestamp;P1;durP1;ratioP1;P2;durP2;ratioP2
42616;SDS011;28250;52.320;0.360;2024-01-10T00:00:09;5.85;;;1.42;;
42616;SDS011;28250;52.320;0.360;2024-01-10T00:02:36;3.92;;;1.08;;
42616;SDS011;28250;52.320;0.360;2024-01-10T00:05:02;5.90;;;1.58;;
42616;SDS011;28250;52.320;0.360;2024-01-10T00:07:29;3.88;;;1.13;;
42616;SDS011;28250;52.320;0.360;2024-01-10T00:09:55;6.47;;;1.38;;
42616;SDS011;28250;52.320;0.360;2024-01-10T00:12:22;6.55;;;1.50;;
42616;SDS011;28250;52.320;0.360;2024-01-10T00:14:48;9.02;;;1.20;;
42616;SDS011;28250;52.320;0.360;2024-01-10T00:17:14;6.38;;;1.38;;
42616;SDS011;28250;52.320;0.360;2024-01-10T00:19:40;5.38;;;1.48;;
42616;SDS011;28250;52.320;0.360;2024-01-10T00:22:06;6.85;;;1.20;;
42616;SDS011;28250;52.320;0.360;2024-01-10T00:24:32;4.68;;;1.30;;
42616;SDS011;28250;52.320;0.360;2024-01-10T00:26:58;6.65;;;1.17;;
42616;SDS011;28250;52.320;0.360;2024-01-10T00:29:24;7.47;;;0.80;;
42616;SDS011;28250;52.320;0.360;2024-01-10T00:31:50;6.75;;;1.00;;
42616;SDS011;28250;52.320;0.360;2024-01-10T00:34:18;6.70;;;1.73;;
42616;SDS011;28250;52.320;0.360;2024-01-10T00:36:44;8.25;;;1.33;;
42616;SDS011;28250;52.320;0.360;2024-01-10T00:39:10;7.45;;;1.40;;
42616;SDS011;28250;52.320;0.360;2024-01-10T00:41:36;5.85;;;1.08;;
42616;SDS011;28250;52.320;0.360;2024-01-10T00:44:02;4.88;;;1.00;;
42616;SDS011;28250;52.320;0.360;2024-01-10T00:46:28;7.50;;;1.42;;
42616;SDS011;28250;52.320;0.360;2024-01-10T00:48:54;2.80;;;1.10;;
42616;SDS011;28250;52.320;0.360;2024-01-10T00:51:20;1.50;;;0.93;;
42616;SDS011;28250;52.320;0.360;2024-01-10T00:53:46;10.32;;;1.23;;
42616;SDS011;28250;52.320;0.360;2024-01-10T00:56:12;4.07;;;1.25;;
42616;SDS011;28250;52.320;0.360;2024-01-10T00:58:39;9.50;;;1.95;;
42616;SDS011;28250;52.320;0.360;2024-01-10T01:01:05;7.03;;;1.10;;
42616;SDS011;28250;52.320;0.360;2024-01-10T01:03:31;5.53;;;1.20;;
42616;SDS011;28250;52.320;0.360;2024-01-10T01:05:57;9.93;;;1.65;;
42616;SDS011;28250;52.320;0.360;2024-01-10T01:08:23;5.18;;;1.40;;
42616;SDS011;28250;52.320;0.360;2024-01-10T01:10:49;3.88;;;1.30;;
42616;SDS011;28250;52.320;0.360;2024-01-10T01:13:15;3.78;;;0.98;;
42616;SDS011;28250;52.320;0.360;2024-01-10T01:15:41;7.70;;;1.50;;
42616;SDS011;28250;52.320;0.360;2024-01-10T01:18:07;6.10;;;1.40;;
42616;SDS011;28250;52.320;0.360;2024-01-10T01:20:35;4.28;;;1.00;;
42616;SDS011;28250;52.320;0.360;2024-01-10T01:23:01;3.60;;;0.90;;
42616;SDS011;28250;52.320;0.360;2024-01-10T01:25:27;6.03;;;1.33;;
42616;SDS011;28250;52.320;0.360;2024-01-10T01:27:53;5.93;;;1.30;;
42616;SDS011;28250;52.320;0.360;2024-01-10T01:30:20;6.25;;;1.20;;
42616;SDS011;28250;52.320;0.360;2024-01-10T01:32:47;6.72;;;1.02;;
42616;SDS011;28250;52.320;0.360;2024-01-10T01:35:13;5.50;;;1.00;;
42616;SDS011;28250;52.320;0.360;2024-01-10T01:37:39;3.28;;;1.50;;
42616;SDS011;28250;52.320;0.360;2024-01-10T01:40:05;7.78;;;1.17;;
42616;SDS011;28250;52.320;0.360;2024-01-10T01:42:32;5.80;;;0.80;;
42616;SDS011;28250;52.320;0.360;2024-01-10T01:44:58;5.18;;;0.88;;
42616;SDS011;28250;52.320;0.360;2024-01-10T01:47:24;2.63;;;0.80;;
42616;SDS011;28250;52.320;0.360;2024-01-10T01:49:52;4.10;;;1.17;;
42616;SDS011;28250;52.320;0.360;2024-01-10T01:52:18;4.72;;;0.82;;
42616;SDS011;28250;52.320;0.360;2024-01-10T01:54:44;6.75;;;1.00;;
42616;SDS011;28250;52.320;0.360;2024-01-10T01:57:11;2.15;;;1.13;;
42616;SDS011;28250;52.320;0.360;2024-01-10T01:59:37;2.42;;;0.70;;
42616;SDS011;28250;52.320;0.360;2024-01-10T02:02:03;7.85;;;0.95;;
42616;SDS011;28250;52.320;0.360;2024-01-10T02:04:31;6.07;;;0.77;;
42616;SDS011;28250;52.320;0.360;2024-01-10T02:06:57;6.18;;;1.20;;
42616;SDS011;28250;52.320;0.360;2024-01-10T02:09:23;5.93;;;0.75;;
42616;SDS011;28250;52.320;0.360;2024-01-10T02:11:49;4.53;;;0.80;;
42616;SDS011;28250;52.320;0.360;2024-01-10T02:14:15;2.30;;;0.73;;
42616;SDS011;28250;52.320;0.360;2024-01-10T02:16:43;5.50;;;0.93;;
42616;SDS011;28250;52.320;0.360;2024-01-10T02:19:30;5.75;;;0.90;;
42616;SDS011;28250;52.320;0.360;2024-01-10T02:21:58;3.20;;;1.13;;
42616;SDS011;28250;52.320;0.360;2024-01-10T02:24:28;4.53;;;0.63;;
42616;SDS011;28250;52.320;0.360;2024-01-10T02:26:55;6.90;;;1.23;;
42616;SDS011;28250;52.320;0.360;2024-01-10T02:29:21;4.78;;;1.10;;
42616;SDS011;28250;52.320;0.360;2024-01-10T02:31:49;5.70;;;0.80;;
42616;SDS011;28250;52.320;0.360;2024-01-10T02:34:15;7.80;;;1.40;;
42616;SDS011;28250;52.320;0.360;2024-01-10T02:36:41;3.35;;;0.90;;
42616;SDS011;28250;52.320;0.360;2024-01-10T02:39:07;4.68;;;1.15;;
42616;SDS011;28250;52.320;0.360;2024-01-10T02:41:33;2.92;;;0.90;;
42616;SDS011;28250;52.320;0.360;2024-01-10T02:43:59;4.90;;;1.30;;
42616;SDS011;28250;52.320;0.360;2024-01-10T02:46:25;3.80;;;1.05;;
42616;SDS011;28250;52.320;0.360;2024-01-10T02:48:54;2.90;;;1.15;;
42616;SDS011;28250;52.320;0.360;2024-01-10T02:51:21;5.30;;;1.05;;
42616;SDS011;28250;52.320;0.360;2024-01-10T02:53:47;6.72;;;1.25;;
42616;SDS011;28250;52.320;0.360;2024-01-10T02:56:13;7.32;;;1.17;;
42616;SDS011;28250;52.320;0.360;2024-01-10T02:58:39;6.28;;;1.13;;
42616;SDS011;28250;52.320;0.360;2024-01-10T03:01:05;3.20;;;1.00;;
42616;SDS011;28250;52.320;0.360;2024-01-10T03:03:31;2.08;;;0.70;;
42616;SDS011;28250;52.320;0.360;2024-01-10T03:05:57;5.13;;;1.00;;
42616;SDS011;28250;52.320;0.360;2024-01-10T03:08:23;6.72;;;1.27;;
42616;SDS011;28250;52.320;0.360;2024-01-10T03:10:49;4.07;;;1.27;;
42616;SDS011;28250;52.320;0.360;2024-01-10T03:13:15;4.93;;;1.40;;
42616;SDS011;28250;52.320;0.360;2024-01-10T03:15:41;5.65;;;1.20;;
42616;SDS011;28250;52.320;0.360;2024-01-10T03:18:08;5.70;;;1.00;;
42616;SDS011;28250;52.320;0.360;2024-01-10T03:20:34;5.00;;;1.00;;
42616;SDS011;28250;52.320;0.360;2024-01-10T03:23:00;7.78;;;1.30;;
42616;SDS011;28250;52.320;0.360;2024-01-10T03:25:26;3.95;;;1.10;;
42616;SDS011;28250;52.320;0.360;2024-01-10T03:27:52;2.55;;;1.00;;
42616;SDS011;28250;52.320;0.360;2024-01-10T03:30:18;3.53;;;1.08;;
42616;SDS011;28250;52.320;0.360;2024-01-10T03:32:45;4.15;;;1.25;;
42616;SDS011;28250;52.320;0.360;2024-01-10T03:35:11;5.72;;;1.10;;
42616;SDS011;28250;52.320;0.360;2024-01-10T03:37:37;5.22;;;1.10;;
42616;SDS011;28250;52.320;0.360;2024-01-10T03:40:03;8.95;;;1.17;;
42616;SDS011;28250;52.320;0.360;2024-01-10T03:42:29;5.05;;;1.38;;
42616;SDS011;28250;52.320;0.360;2024-01-10T03:44:57;10.48;;;1.55;;
42616;SDS011;28250;52.320;0.360;2024-01-10T03:47:23;10.45;;;2.00;;
42616;SDS011;28250;52.320;0.360;2024-01-10T03:49:49;11.15;;;2.15;;
42616;SDS011;28250;52.320;0.360;2024-01-10T03:52:15;6.38;;;2.30;;
42616;SDS011;28250;52.320;0.360;2024-01-10T03:54:41;4.68;;;1.67;;
42616;SDS011;28250;52.320;0.360;2024-01-10T03:57:07;11.93;;;1.77;;
42616;SDS011;28250;52.320;0.360;2024-01-10T03:59:33;4.80;;;1.65;;
42616;SDS011;28250;52.320;0.360;2024-01-10T04:01:59;7.27;;;1.50;;
42616;SDS011;28250;52.320;0.360;2024-01-10T04:04:26;6.40;;;1.20;;
42616;SDS011;28250;52.320;0.360;2024-01-10T04:06:53;8.35;;;1.65;;
42616;SDS011;28250;52.320;0.360;2024-01-10T04:09:18;6.80;;;1.60;;
42616;SDS011;28250;52.320;0.360;2024-01-10T04:11:45;7.68;;;1.50;;
42616;SDS011;28250;52.320;0.360;2024-01-10T04:14:11;7.85;;;2.10;;
42616;SDS011;28250;52.320;0.360;2024-01-10T04:16:37;10.27;;;1.98;;
42616;SDS011;28250;52.320;0.360;2024-01-10T04:19:04;11.65;;;1.85;;
42616;SDS011;28250;52.320;0.360;2024-01-10T04:21:30;5.20;;;1.70;;
42616;SDS011;28250;52.320;0.360;2024-01-10T04:23:56;2.90;;;1.40;;
42616;SDS011;28250;52.320;0.360;2024-01-10T04:26:22;10.38;;;1.77;;
42616;SDS011;28250;52.320;0.360;2024-01-10T04:28:48;6.20;;;1.70;;
42616;SDS011;28250;52.320;0.360;2024-01-10T04:31:15;6.93;;;1.50;;
42616;SDS011;28250;52.320;0.360;2024-01-10T04:33:41;6.13;;;1.90;;
42616;SDS011;28250;52.320;0.360;2024-01-10T04:36:07;7.10;;;1.40;;
42616;SDS011;28250;52.320;0.360;2024-01-10T04:38:33;3.80;;;1.70;;
42616;SDS011;28250;52.320;0.360;2024-01-10T04:40:59;5.03;;;1.38;;
42616;SDS011;28250;52.320;0.360;2024-01-10T04:43:25;3.55;;;1.77;;
42616;SDS011;28250;52.320;0.360;2024-01-10T04:45:51;7.10;;;2.03;;
42616;SDS011;28250;52.320;0.360;2024-01-10T04:48:17;4.63;;;1.45;;
42616;SDS011;28250;52.320;0.360;2024-01-10T04:50:43;6.82;;;1.63;;
42616;SDS011;28250;52.320;0.360;2024-01-10T04:53:09;6.10;;;1.60;;
42616;SDS011;28250;52.320;0.360;2024-01-10T04:55:35;6.88;;;2.20;;
42616;SDS011;28250;52.320;0.360;2024-01-10T04:58:01;8.88;;;1.83;;
42616;SDS011;28250;52.320;0.360;2024-01-10T05:00:28;3.53;;;1.42;;
42616;SDS011;28250;52.320;0.360;2024-01-10T05:02:54;6.70;;;1.73;;
42616;SDS011;28250;52.320;0.360;2024-01-10T05:05:20;9.15;;;1.70;;
42616;SDS011;28250;52.320;0.360;2024-01-10T05:07:49;4.15;;;1.38;;
42616;SDS011;28250;52.320;0.360;2024-01-10T05:12:42;11.38;;;2.28;;
42616;SDS011;28250;52.320;0.360;2024-01-10T05:15:08;4.38;;;1.73;;
42616;SDS011;28250;52.320;0.360;2024-01-10T05:17:34;4.45;;;1.65;;
42616;SDS011;28250;52.320;0.360;2024-01-10T05:20:00;7.63;;;1.90;;
42616;SDS011;28250;52.320;0.360;2024-01-10T05:22:26;4.97;;;1.95;;
42616;SDS011;28250;52.320;0.360;2024-01-10T05:24:52;11.43;;;1.88;;
42616;SDS011;28250;52.320;0.360;2024-01-10T05:27:18;5.78;;;1.70;;
42616;SDS011;28250;52.320;0.360;2024-01-10T05:29:44;10.73;;;1.60;;
42616;SDS011;28250;52.320;0.360;2024-01-10T05:32:12;4.13;;;1.60;;
42616;SDS011;28250;52.320;0.360;2024-01-10T05:34:38;5.68;;;1.80;;
42616;SDS011;28250;52.320;0.360;2024-01-10T05:37:04;5.82;;;1.67;;
42616;SDS011;28250;52.320;0.360;2024-01-10T05:39:30;9.90;;;1.92;;
42616;SDS011;28250;52.320;0.360;2024-01-10T05:41:56;3.50;;;1.58;;
42616;SDS011;28250;52.320;0.360;2024-01-10T05:44:22;6.53;;;1.77;;
42616;SDS011;28250;52.320;0.360;2024-01-10T05:46:48;9.13;;;1.70;;
42616;SDS011;28250;52.320;0.360;2024-01-10T05:49:14;7.60;;;2.10;;
42616;SDS011;28250;52.320;0.360;2024-01-10T05:51:40;8.13;;;1.90;;
42616;SDS011;28250;52.320;0.360;2024-01-10T05:54:06;7.28;;;2.05;;
42616;SDS011;28250;52.320;0.360;2024-01-10T05:56:32;5.85;;;1.77;;
42616;SDS011;28250;52.320;0.360;2024-01-10T05:58:58;7.00;;;1.48;;
42616;SDS011;28250;52.320;0.360;2024-01-10T06:01:24;5.90;;;1.67;;
42616;SDS011;28250;52.320;0.360;2024-01-10T06:03:51;6.25;;;1.60;;
42616;SDS011;28250;52.320;0.360;2024-01-10T06:06:17;6.35;;;1.83;;
42616;SDS011;28250;52.320;0.360;2024-01-10T06:08:43;6.53;;;1.90;;
42616;SDS011;28250;52.320;0.360;2024-01-10T06:11:09;6.38;;;1.75;;
42616;SDS011;28250;52.320;0.360;2024-01-10T06:13:36;6.93;;;1.73;;
42616;SDS011;28250;52.320;0.360;2024-01-10T06:16:02;5.65;;;1.65;;
42616;SDS011;28250;52.320;0.360;2024-01-10T06:18:29;8.10;;;1.92;;
42616;SDS011;28250;52.320;0.360;2024-01-10T06:20:55;5.22;;;1.90;;
42616;SDS011;28250;52.320;0.360;2024-01-10T06:23:21;6.60;;;1.63;;
42616;SDS011;28250;52.320;0.360;2024-01-10T06:25:47;4.60;;;1.52;;
42616;SDS011;28250;52.320;0.360;2024-01-10T06:28:13;4.22;;;1.58;;
42616;SDS011;28250;52.320;0.360;2024-01-10T06:30:39;6.65;;;1.38;;
42616;SDS011;28250;52.320;0.360;2024-01-10T06:33:05;9.65;;;1.95;;
42616;SDS011;28250;52.320;0.360;2024-01-10T06:35:32;4.47;;;1.37;;
42616;SDS011;28250;52.320;0.360;2024-01-10T06:37:59;4.10;;;1.80;;
42616;SDS011;28250;52.320;0.360;2024-01-10T06:40:29;8.85;;;1.80;;
42616;SDS011;28250;52.320;0.360;2024-01-10T06:42:55;6.43;;;1.87;;
42616;SDS011;28250;52.320;0.360;2024-01-10T06:45:22;6.43;;;1.53;;
42616;SDS011;28250;52.320;0.360;2024-01-10T06:47:48;7.35;;;1.67;;
42616;SDS011;28250;52.320;0.360;2024-01-10T06:50:14;6.03;;;1.48;;
42616;SDS011;28250;52.320;0.360;2024-01-10T06:52:41;6.05;;;1.80;;
42616;SDS011;28250;52.320;0.360;2024-01-10T06:55:07;4.50;;;1.83;;
42616;SDS011;28250;52.320;0.360;2024-01-10T06:57:33;7.23;;;1.67;;
42616;SDS011;28250;52.320;0.360;2024-01-10T06:59:59;2.58;;;1.30;;
42616;SDS011;28250;52.320;0.360;2024-01-10T07:02:28;8.05;;;1.60;;
42616;SDS011;28250;52.320;0.360;2024-01-10T07:04:55;3.00;;;1.30;;
42616;SDS011;28250;52.320;0.360;2024-01-10T07:07:21;6.03;;;1.70;;
42616;SDS011;28250;52.320;0.360;2024-01-10T07:09:47;5.68;;;1.73;;
42616;SDS011;28250;52.320;0.360;2024-01-10T07:12:13;6.50;;;1.58;;
42616;SDS011;28250;52.320;0.360;2024-01-10T07:14:39;1.52;;;1.10;;
42616;SDS011;28250;52.320;0.360;2024-01-10T07:17:05;4.13;;;1.45;;
42616;SDS011;28250;52.320;0.360;2024-01-10T07:19:32;7.82;;;1.45;;
42616;SDS011;28250;52.320;0.360;2024-01-10T07:21:58;7.30;;;1.90;;
42616;SDS011;28250;52.320;0.360;2024-01-10T07:24:24;8.00;;;1.50;;
42616;SDS011;28250;52.320;0.360;2024-01-10T07:26:50;5.28;;;1.70;;
42616;SDS011;28250;52.320;0.360;2024-01-10T07:29:16;5.95;;;1.80;;
42616;SDS011;28250;52.320;0.360;2024-01-10T07:31:42;2.85;;;1.20;;
42616;SDS011;28250;52.320;0.360;2024-01-10T07:34:08;5.13;;;1.35;;
42616;SDS011;28250;52.320;0.360;2024-01-10T07:36:40;6.63;;;1.23;;
42616;SDS011;28250;52.320;0.360;2024-01-10T07:39:07;7.30;;;1.67;;
42616;SDS011;28250;52.320;0.360;2024-01-10T07:41:34;6.32;;;1.30;;
42616;SDS011;28250;52.320;0.360;2024-01-10T07:44:00;7.03;;;1.30;;
42616;SDS011;28250;52.320;0.360;2024-01-10T07:46:26;10.00;;;1.63;;
42616;SDS011;28250;52.320;0.360;2024-01-10T07:48:53;6.50;;;1.40;;
42616;SDS011;28250;52.320;0.360;2024-01-10T07:51:19;4.50;;;1.30;;
42616;SDS011;28250;52.320;0.360;2024-01-10T07:53:45;4.90;;;1.58;;
42616;SDS011;28250;52.320;0.360;2024-01-10T07:56:11;4.03;;;1.00;;
42616;SDS011;28250;52.320;0.360;2024-01-10T08:01:05;3.97;;;1.33;;
42616;SDS011;28250;52.320;0.360;2024-01-10T08:03:31;6.28;;;1.42;;
42616;SDS011;28250;52.320;0.360;2024-01-10T08:05:58;5.53;;;1.05;;
42616;SDS011;28250;52.320;0.360;2024-01-10T08:08:24;4.40;;;1.77;;
42616;SDS011;28250;52.320;0.360;2024-01-10T08:10:50;2.72;;;1.25;;
42616;SDS011;28250;52.320;0.360;2024-01-10T08:13:16;7.70;;;1.63;;
42616;SDS011;28250;52.320;0.360;2024-01-10T08:15:43;9.35;;;1.95;;
42616;SDS011;28250;52.320;0.360;2024-01-10T08:18:09;8.05;;;1.88;;
42616;SDS011;28250;52.320;0.360;2024-01-10T08:20:35;5.88;;;1.48;;
42616;SDS011;28250;52.320;0.360;2024-01-10T08:23:01;6.05;;;1.30;;
42616;SDS011;28250;52.320;0.360;2024-01-10T08:25:28;5.05;;;1.38;;
42616;SDS011;28250;52.320;0.360;2024-01-10T08:27:54;6.30;;;1.30;;
42616;SDS011;28250;52.320;0.360;2024-01-10T08:30:22;4.93;;;1.58;;
42616;SDS011;28250;52.320;0.360;2024-01-10T08:32:50;7.13;;;1.65;;
42616;SDS011;28250;52.320;0.360;2024-01-10T08:35:17;4.22;;;1.80;;
42616;SDS011;28250;52.320;0.360;2024-01-10T08:37:44;4.68;;;1.13;;
42616;SDS011;28250;52.320;0.360;2024-01-10T08:40:11;7.45;;;1.88;;
42616;SDS011;28250;52.320;0.360;2024-01-10T08:42:40;9.20;;;1.85;;
42616;SDS011;28250;52.320;0.360;2024-01-10T08:45:07;3.97;;;2.10;;
42616;SDS011;28250;52.320;0.360;2024-01-10T08:47:36;6.28;;;1.98;;
42616;SDS011;28250;52.320;0.360;2024-01-10T08:50:03;8.27;;;1.63;;
42616;SDS011;28250;52.320;0.360;2024-01-10T08:52:36;3.88;;;1.50;;
42616;SDS011;28250;52.320;0.360;2024-01-10T08:55:05;6.32;;;1.38;;
42616;SDS011;28250;52.320;0.360;2024-01-10T08:57:32;8.18;;;1.38;;
42616;SDS011;28250;52.320;0.360;2024-01-10T08:59:58;2.10;;;1.15;;
42616;SDS011;28250;52.320;0.360;2024-01-10T09:02:25;3.58;;;1.17;;
42616;SDS011;28250;52.320;0.360;2024-01-10T09:07:19;5.18;;;1.27;;
42616;SDS011;28250;52.320;0.360;2024-01-10T09:09:46;5.28;;;1.25;;
42616;SDS011;28250;52.320;0.360;2024-01-10T09:12:12;5.82;;;1.45;;
42616;SDS011;28250;52.320;0.360;2024-01-10T09:14:38;5.15;;;1.33;;
42616;SDS011;28250;52.320;0.360;2024-01-10T09:17:05;5.10;;;0.88;;
42616;SDS011;28250;52.320;0.360;2024-01-10T09:19:31;11.40;;;1.17;;
42616;SDS011;28250;52.320;0.360;2024-01-10T09:21:57;6.47;;;1.17;;
42616;SDS011;28250;52.320;0.360;2024-01-10T09:24:23;6.70;;;1.20;;
42616;SDS011;28250;52.320;0.360;2024-01-10T09:26:52;7.25;;;1.38;;
42616;SDS011;28250;52.320;0.360;2024-01-10T09:29:19;3.90;;;1.30;;
42616;SDS011;28250;52.320;0.360;2024-01-10T09:31:45;4.78;;;1.25;;
42616;SDS011;28250;52.320;0.360;2024-01-10T09:34:11;7.75;;;1.50;;
42616;SDS011;28250;52.320;0.360;2024-01-10T09:36:37;3.47;;;1.40;;
42616;SDS011;28250;52.320;0.360;2024-01-10T09:39:03;3.65;;;1.13;;
42616;SDS011;28250;52.320;0.360;2024-01-10T09:41:31;5.82;;;1.92;;
42616;SDS011;28250;52.320;0.360;2024-01-10T09:44:08;3.38;;;1.17;;
42616;SDS011;28250;52.320;0.360;2024-01-10T09:46:35;4.10;;;1.30;;
42616;SDS011;28250;52.320;0.360;2024-01-10T09:49:05;5.05;;;1.00;;
42616;SDS011;28250;52.320;0.360;2024-01-10T09:51:31;3.05;;;1.70;;
42616;SDS011;28250;52.320;0.360;2024-01-10T09:53:59;6.25;;;1.10;;
42616;SDS011;28250;52.320;0.360;2024-01-10T09:56:30;4.72;;;1.20;;
42616;SDS011;28250;52.320;0.360;2024-01-10T09:59:01;4.30;;;1.23;;
42616;SDS011;28250;52.320;0.360;2024-01-10T10:01:30;2.92;;;1.20;;
42616;SDS011;28250;52.320;0.360;2024-01-10T10:03:57;3.35;;;1.30;;
42616;SDS011;28250;52.320;0.360;2024-01-10T10:06:23;7.17;;;1.20;;
42616;SDS011;28250;52.320;0.360;2024-01-10T10:08:49;3.53;;;1.30;;
42616;SDS011;28250;52.320;0.360;2024-01-10T10:11:15;4.78;;;1.42;;
42616;SDS011;28250;52.320;0.360;2024-01-10T10:13:42;5.03;;;1.67;;
42616;SDS011;28250;52.320;0.360;2024-01-10T10:16:08;3.35;;;1.58;;
42616;SDS011;28250;52.320;0.360;2024-01-10T10:18:38;5.22;;;1.30;;
42616;SDS011;28250;52.320;0.360;2024-01-10T10:21:08;6.03;;;1.33;;
42616;SDS011;28250;52.320;0.360;2024-01-10T10:23:37;7.35;;;1.60;;
42616;SDS011;28250;52.320;0.360;2024-01-10T10:26:14;8.07;;;1.30;;
42616;SDS011;28250;52.320;0.360;2024-01-10T10:28:49;2.50;;;1.00;;
42616;SDS011;28250;52.320;0.360;2024-01-10T10:31:17;5.32;;;1.00;;
42616;SDS011;28250;52.320;0.360;2024-01-10T10:33:45;6.30;;;1.10;;
42616;SDS011;28250;52.320;0.360;2024-01-10T10:38:41;4.35;;;1.23;;
42616;SDS011;28250;52.320;0.360;2024-01-10T10:41:08;3.30;;;1.23;;
42616;SDS011;28250;52.320;0.360;2024-01-10T10:43:37;7.60;;;1.20;;
42616;SDS011;28250;52.320;0.360;2024-01-10T10:51:03;4.55;;;1.10;;
42616;SDS011;28250;52.320;0.360;2024-01-10T10:53:59;6.93;;;1.13;;
42616;SDS011;28250;52.320;0.360;2024-01-10T10:56:27;4.00;;;1.40;;
42616;SDS011;28250;52.320;0.360;2024-01-10T10:58:57;4.63;;;1.10;;
42616;SDS011;28250;52.320;0.360;2024-01-10T11:01:26;3.40;;;1.40;;
42616;SDS011;28250;52.320;0.360;2024-01-10T11:03:53;5.28;;;1.45;;
42616;SDS011;28250;52.320;0.360;2024-01-10T11:06:20;4.07;;;1.10;;
42616;SDS011;28250;52.320;0.360;2024-01-10T11:08:49;4.72;;;1.58;;
42616;SDS011;28250;52.320;0.360;2024-01-10T11:11:41;7.65;;;1.80;;
42616;SDS011;28250;52.320;0.360;2024-01-10T11:23:47;3.22;;;1.52;;
42616;SDS011;28250;52.320;0.360;2024-01-10T11:26:17;5.82;;;1.90;;
42616;SDS011;28250;52.320;0.360;2024-01-10T11:28:45;5.40;;;1.60;;
42616;SDS011;28250;52.320;0.360;2024-01-10T11:31:12;2.90;;;1.30;;
42616;SDS011;28250;52.320;0.360;2024-01-10T11:33:40;4.70;;;1.48;;
42616;SDS011;28250;52.320;0.360;2024-01-10T11:36:15;9.02;;;1.45;;
42616;SDS011;28250;52.320;0.360;2024-01-10T11:38:48;7.68;;;1.70;;
42616;SDS011;28250;52.320;0.360;2024-01-10T11:41:21;7.10;;;2.22;;
42616;SDS011;28250;52.320;0.360;2024-01-10T11:46:38;5.32;;;1.92;;
42616;SDS011;28250;52.320;0.360;2024-01-10T11:49:16;4.22;;;1.58;;
42616;SDS011;28250;52.320;0.360;2024-01-10T11:51:44;3.00;;;1.50;;
42616;SDS011;28250;52.320;0.360;2024-01-10T11:59:49;5.95;;;1.63;;
42616;SDS011;28250;52.320;0.360;2024-01-10T12:02:18;8.18;;;1.60;;
42616;SDS011;28250;52.320;0.360;2024-01-10T12:04:46;8.77;;;2.03;;
42616;SDS011;28250;52.320;0.360;2024-01-10T12:07:13;7.30;;;1.33;;
42616;SDS011;28250;52.320;0.360;2024-01-10T12:09:40;9.73;;;1.88;;
42616;SDS011;28250;52.320;0.360;2024-01-10T12:12:07;13.43;;;1.90;;
42616;SDS011;28250;52.320;0.360;2024-01-10T12:14:36;8.73;;;1.88;;
42616;SDS011;28250;52.320;0.360;2024-01-10T12:17:02;7.03;;;1.75;;
42616;SDS011;28250;52.320;0.360;2024-01-10T12:19:30;8.70;;;1.92;;
42616;SDS011;28250;52.320;0.360;2024-01-10T12:21:56;8.77;;;2.22;;
42616;SDS011;28250;52.320;0.360;2024-01-10T12:24:22;2.78;;;1.60;;
42616;SDS011;28250;52.320;0.360;2024-01-10T12:26:49;7.82;;;2.22;;
42616;SDS011;28250;52.320;0.360;2024-01-10T12:29:17;7.20;;;1.75;;
42616;SDS011;28250;52.320;0.360;2024-01-10T12:31:45;6.20;;;1.92;;
42616;SDS011;28250;52.320;0.360;2024-01-10T12:34:13;5.22;;;1.80;;
42616;SDS011;28250;52.320;0.360;2024-01-10T12:36:43;6.63;;;2.15;;
42616;SDS011;28250;52.320;0.360;2024-01-10T12:39:10;8.35;;;1.98;;
42616;SDS011;28250;52.320;0.360;2024-01-10T12:41:37;5.50;;;1.83;;
42616;SDS011;28250;52.320;0.360;2024-01-10T12:44:06;6.03;;;2.25;;
42616;SDS011;28250;52.320;0.360;2024-01-10T12:46:32;5.82;;;1.85;;
42616;SDS011;28250;52.320;0.360;2024-01-10T12:48:58;4.30;;;1.90;;
42616;SDS011;28250;52.320;0.360;2024-01-10T12:51:28;7.53;;;1.80;;
42616;SDS011;28250;52.320;0.360;2024-01-10T12:53:55;3.42;;;1.90;;
42616;SDS011;28250;52.320;0.360;2024-01-10T12:56:24;7.82;;;1.95;;
42616;SDS011;28250;52.320;0.360;2024-01-10T12:58:51;7.72;;;1.73;;
42616;SDS011;28250;52.320;0.360;2024-01-10T13:01:17;7.22;;;1.92;;
42616;SDS011;28250;52.320;0.360;2024-01-10T13:03:43;7.13;;;2.05;;
42616;SDS011;28250;52.320;0.360;2024-01-10T13:06:09;5.22;;;1.90;;
42616;SDS011;28250;52.320;0.360;2024-01-10T13:08:36;5.30;;;2.00;;
42616;SDS011;28250;52.320;0.360;2024-01-10T13:11:02;8.93;;;1.67;;
42616;SDS011;28250;52.320;0.360;2024-01-10T13:13:36;6.38;;;1.65;;
42616;SDS011;28250;52.320;0.360;2024-01-10T13:16:03;6.13;;;2.00;;
42616;SDS011;28250;52.320;0.360;2024-01-10T13:18:30;5.10;;;1.30;;
42616;SDS011;28250;52.320;0.360;2024-01-10T13:20:56;5.28;;;1.90;;
42616;SDS011;28250;52.320;0.360;2024-01-10T13:23:22;5.40;;;1.60;;
42616;SDS011;28250;52.320;0.360;2024-01-10T13:25:49;6.53;;;1.52;;
42616;SDS011;28250;52.320;0.360;2024-01-10T13:28:17;7.13;;;2.00;;
42616;SDS011;28250;52.320;0.360;2024-01-10T13:30:44;3.90;;;1.65;;
42616;SDS011;28250;52.320;0.360;2024-01-10T13:33:10;7.93;;;1.75;;
42616;SDS011;28250;52.320;0.360;2024-01-10T13:35:37;10.03;;;1.90;;
42616;SDS011;28250;52.320;0.360;2024-01-10T13:38:04;6.80;;;1.95;;
42616;SDS011;28250;52.320;0.360;2024-01-10T13:40:31;6.40;;;1.60;;
42616;SDS011;28250;52.320;0.360;2024-01-10T13:42:59;6.70;;;1.85;;
42616;SDS011;28250;52.320;0.360;2024-01-10T13:45:28;4.40;;;1.60;;
42616;SDS011;28250;52.320;0.360;2024-01-10T13:47:54;5.90;;;1.40;;
42616;SDS011;28250;52.320;0.360;2024-01-10T13:50:21;5.22;;;1.55;;
42616;SDS011;28250;52.320;0.360;2024-01-10T13:52:49;2.30;;;1.20;;
42616;SDS011;28250;52.320;0.360;2024-01-10T13:55:15;6.80;;;1.52;;
42616;SDS011;28250;52.320;0.360;2024-01-10T13:57:41;10.10;;;1.90;;
42616;SDS011;28250;52.320;0.360;2024-01-10T14:00:07;5.18;;;2.50;;
42616;SDS011;28250;52.320;0.360;2024-01-10T14:02:40;4.45;;;1.90;;
42616;SDS011;28250;52.320;0.360;2024-01-10T14:05:09;4.05;;;1.58;;
42616;SDS011;28250;52.320;0.360;2024-01-10T14:07:35;9.50;;;1.90;;
42616;SDS011;28250;52.320;0.360;2024-01-10T14:10:01;5.47;;;1.55;;
42616;SDS011;28250;52.320;0.360;2024-01-10T14:12:28;5.53;;;1.27;;
42616;SDS011;28250;52.320;0.360;2024-01-10T14:14:57;5.70;;;1.40;;
42616;SDS011;28250;52.320;0.360;2024-01-10T14:17:25;2.60;;;1.20;;
42616;SDS011;28250;52.320;0.360;2024-01-10T14:19:51;3.92;;;1.10;;
42616;SDS011;28250;52.320;0.360;2024-01-10T14:22:18;4.35;;;1.17;;
42616;SDS011;28250;52.320;0.360;2024-01-10T14:24:44;2.15;;;1.20;;
42616;SDS011;28250;52.320;0.360;2024-01-10T14:27:10;4.38;;;1.75;;
42616;SDS011;28250;52.320;0.360;2024-01-10T14:29:37;4.80;;;1.00;;
42616;SDS011;28250;52.320;0.360;2024-01-10T14:32:03;2.50;;;1.10;;
42616;SDS011;28250;52.320;0.360;2024-01-10T14:34:29;2.90;;;0.83;;
42616;SDS011;28250;52.320;0.360;2024-01-10T14:36:55;3.38;;;1.10;;
42616;SDS011;28250;52.320;0.360;2024-01-10T14:39:21;6.70;;;1.02;;
42616;SDS011;28250;52.320;0.360;2024-01-10T14:41:48;6.10;;;1.00;;
42616;SDS011;28250;52.320;0.360;2024-01-10T14:44:15;3.85;;;1.00;;
42616;SDS011;28250;52.320;0.360;2024-01-10T14:46:41;3.60;;;1.10;;
42616;SDS011;28250;52.320;0.360;2024-01-10T14:49:07;5.03;;;0.80;;
42616;SDS011;28250;52.320;0.360;2024-01-10T14:51:33;2.42;;;1.00;;
42616;SDS011;28250;52.320;0.360;2024-01-10T14:53:59;2.65;;;0.77;;
42616;SDS011;28250;52.320;0.360;2024-01-10T14:56:25;4.95;;;1.10;;
42616;SDS011;28250;52.320;0.360;2024-01-10T14:58:51;3.63;;;1.08;;
42616;SDS011;28250;52.320;0.360;2024-01-10T15:01:17;5.00;;;1.02;;
42616;SDS011;28250;52.320;0.360;2024-01-10T15:03:45;4.72;;;0.93;;
42616;SDS011;28250;52.320;0.360;2024-01-10T15:06:11;5.22;;;0.90;;
42616;SDS011;28250;52.320;0.360;2024-01-10T15:08:40;3.43;;;0.80;;
42616;SDS011;28250;52.320;0.360;2024-01-10T15:11:06;5.90;;;1.10;;
42616;SDS011;28250;52.320;0.360;2024-01-10T15:13:36;3.22;;;0.90;;
42616;SDS011;28250;52.320;0.360;2024-01-10T15:16:07;3.30;;;0.85;;
42616;SDS011;28250;52.320;0.360;2024-01-10T15:18:33;5.47;;;1.00;;